sensor_id;sensor_type;location;lat;lon;timestamp;P1;durP1;ratioP1;P2;durP2;ratioP2
75639;SDS011;64233;51.486;6.332;2023-04-01T00:00:50;1.08;;;0.60;;
75639;SDS011;64233;51.486;6.332;2023-04-01T00:03:17;3.15;;;0.82;;
75639;SDS011;64233;51.486;6.332;2023-04-01T00:05:42;0.40;;;0.40;;
75639;SDS011;64233;51.486;6.332;2023-04-01T00:08:08;2.03;;;0.82;;
75639;SDS011;64233;51.486;6.332;2023-04-01T00:10:33;0.30;;;0.30;;
75639;SDS011;64233;51.486;6.332;2023-04-01T00:12:58;0.80;;;0.77;;
75639;SDS011;64233;51.486;6.332;2023-04-01T00:15:23;2.30;;;0.50;;
75639;SDS011;64233;51.486;6.332;2023-04-01T00:17:49;2.40;;;0.70;;
75639;SDS011;64233;51.486;6.332;2023-04-01T00:20:14;1.15;;;0.50;;
75639;SDS011;64233;51.486;6.332;2023-04-01T00:22:40;8.13;;;0.70;;
75639;SDS011;64233;51.486;6.332;2023-04-01T00:25:06;0.80;;;0.38;;
75639;SDS011;64233;51.486;6.332;2023-04-01T00:27:31;1.58;;;0.50;;
75639;SDS011;64233;51.486;6.332;2023-04-01T00:29:57;0.40;;;0.40;;
75639;SDS011;64233;51.486;6.332;2023-04-01T00:32:22;0.25;;;0.25;;
75639;SDS011;64233;51.486;6.332;2023-04-01T00:34:51;0.30;;;0.30;;
75639;SDS011;64233;51.486;6.332;2023-04-01T00:37:17;1.60;;;0.93;;
75639;SDS011;64233;51.486;6.332;2023-04-01T00:39:43;0.57;;;0.55;;
75639;SDS011;64233;51.486;6.332;2023-04-01T00:42:09;2.03;;;0.55;;
75639;SDS011;64233;51.486;6.332;2023-04-01T00:44:36;0.40;;;0.40;;
75639;SDS011;64233;51.486;6.332;2023-04-01T00:47:03;0.30;;;0.30;;
75639;SDS011;64233;51.486;6.332;2023-04-01T00:49:35;2.22;;;0.68;;
75639;SDS011;64233;51.486;6.332;2023-04-01T00:52:04;2.72;;;0.43;;
75639;SDS011;64233;51.486;6.332;2023-04-01T00:54:32;0.30;;;0.30;;
75639;SDS011;64233;51.486;6.332;2023-04-01T00:57:02;3.05;;;1.02;;
75639;SDS011;64233;51.486;6.332;2023-04-01T00:59:34;0.43;;;0.43;;
75639;SDS011;64233;51.486;6.332;2023-04-01T01:02:04;0.40;;;0.40;;
75639;SDS011;64233;51.486;6.332;2023-04-01T01:04:33;0.20;;;0.20;;
75639;SDS011;64233;51.486;6.332;2023-04-01T01:09:34;0.28;;;0.28;;
75639;SDS011;64233;51.486;6.332;2023-04-01T01:12:30;0.13;;;0.13;;
75639;SDS011;64233;51.486;6.332;2023-04-01T01:15:06;0.40;;;0.32;;
75639;SDS011;64233;51.486;6.332;2023-04-01T01:34:25;2.22;;;0.50;;
75639;SDS011;64233;51.486;6.332;2023-04-01T01:37:01;0.40;;;0.40;;
75639;SDS011;64233;51.486;6.332;2023-04-01T01:39:31;0.55;;;0.38;;
75639;SDS011;64233;51.486;6.332;2023-04-01T01:42:01;0.20;;;0.20;;
75639;SDS011;64233;51.486;6.332;2023-04-01T01:44:30;0.47;;;0.47;;
75639;SDS011;64233;51.486;6.332;2023-04-01T01:46:58;1.30;;;0.30;;
75639;SDS011;64233;51.486;6.332;2023-04-01T01:49:25;1.65;;;0.32;;
75639;SDS011;64233;51.486;6.332;2023-04-01T01:51:52;0.45;;;0.38;;
75639;SDS011;64233;51.486;6.332;2023-04-01T01:54:17;0.30;;;0.30;;
75639;SDS011;64233;51.486;6.332;2023-04-01T01:56:46;0.30;;;0.30;;
75639;SDS011;64233;51.486;6.332;2023-04-01T01:59:16;0.35;;;0.35;;
75639;SDS011;64233;51.486;6.332;2023-04-01T02:01:46;0.20;;;0.20;;
75639;SDS011;64233;51.486;6.332;2023-04-01T02:04:15;1.75;;;0.30;;
75639;SDS011;64233;51.486;6.332;2023-04-01T02:06:49;0.30;;;0.30;;
75639;SDS011;64233;51.486;6.332;2023-04-01T02:09:21;0.40;;;0.40;;
75639;SDS011;64233;51.486;6.332;2023-04-01T02:11:54;0.15;;;0.15;;
75639;SDS011;64233;51.486;6.332;2023-04-01T02:14:23;0.45;;;0.35;;
75639;SDS011;64233;51.486;6.332;2023-04-01T02:16:58;0.45;;;0.30;;
75639;SDS011;64233;51.486;6.332;2023-04-01T02:19:31;0.22;;;0.22;;
75639;SDS011;64233;51.486;6.332;2023-04-01T02:22:01;0.20;;;0.20;;
75639;SDS011;64233;51.486;6.332;2023-04-01T02:24:30;0.28;;;0.28;;
75639;SDS011;64233;51.486;6.332;2023-04-01T02:26:56;0.38;;;0.20;;
75639;SDS011;64233;51.486;6.332;2023-04-01T02:29:23;0.20;;;0.20;;
75639;SDS011;64233;51.486;6.332;2023-04-01T02:31:51;0.10;;;0.10;;
75639;SDS011;64233;51.486;6.332;2023-04-01T02:34:18;0.40;;;0.30;;
75639;SDS011;64233;51.486;6.332;2023-04-01T02:36:44;0.43;;;0.43;;
75639;SDS011;64233;51.486;6.332;2023-04-01T02:39:11;0.35;;;0.35;;
75639;SDS011;64233;51.486;6.332;2023-04-01T02:41:38;1.27;;;0.30;;
75639;SDS011;64233;51.486;6.332;2023-04-01T02:44:05;0.30;;;0.30;;
75639;SDS011;64233;51.486;6.332;2023-04-01T02:46:32;0.40;;;0.40;;
75639;SDS011;64233;51.486;6.332;2023-04-01T02:48:57;0.50;;;0.50;;
75639;SDS011;64233;51.486;6.332;2023-04-01T02:51:22;0.68;;;0.68;;
75639;SDS011;64233;51.486;6.332;2023-04-01T02:53:47;0.50;;;0.50;;
75639;SDS011;64233;51.486;6.332;2023-04-01T02:56:13;1.88;;;0.60;;
75639;SDS011;64233;51.486;6.332;2023-04-01T02:58:38;0.40;;;0.40;;
75639;SDS011;64233;51.486;6.332;2023-04-01T03:01:03;0.28;;;0.28;;
75639;SDS011;64233;51.486;6.332;2023-04-01T03:03:29;2.60;;;0.75;;
75639;SDS011;64233;51.486;6.332;2023-04-01T03:05:54;1.00;;;0.85;;
75639;SDS011;64233;51.486;6.332;2023-04-01T03:08:25;0.50;;;0.40;;
75639;SDS011;64233;51.486;6.332;2023-04-01T03:10:50;0.93;;;0.52;;
75639;SDS011;64233;51.486;6.332;2023-04-01T03:13:15;0.82;;;0.55;;
75639;SDS011;64233;51.486;6.332;2023-04-01T03:15:40;1.00;;;0.88;;
75639;SDS011;64233;51.486;6.332;2023-04-01T03:18:06;0.65;;;0.65;;
75639;SDS011;64233;51.486;6.332;2023-04-01T03:20:31;0.82;;;0.45;;
75639;SDS011;64233;51.486;6.332;2023-04-01T03:22:56;2.85;;;1.00;;
75639;SDS011;64233;51.486;6.332;2023-04-01T03:25:28;1.80;;;0.90;;
75639;SDS011;64233;51.486;6.332;2023-04-01T03:27:55;1.58;;;1.15;;
75639;SDS011;64233;51.486;6.332;2023-04-01T03:30:21;4.40;;;1.00;;
75639;SDS011;64233;51.486;6.332;2023-04-01T03:32:46;2.08;;;1.05;;
75639;SDS011;64233;51.486;6.332;2023-04-01T03:35:11;1.30;;;1.02;;
75639;SDS011;64233;51.486;6.332;2023-04-01T03:37:36;1.23;;;0.93;;
75639;SDS011;64233;51.486;6.332;2023-04-01T03:40:02;1.85;;;0.90;;
75639;SDS011;64233;51.486;6.332;2023-04-01T03:42:29;0.70;;;0.70;;
75639;SDS011;64233;51.486;6.332;2023-04-01T03:44:56;0.85;;;0.77;;
75639;SDS011;64233;51.486;6.332;2023-04-01T03:47:21;1.23;;;1.00;;
75639;SDS011;64233;51.486;6.332;2023-04-01T03:49:46;1.38;;;1.13;;
75639;SDS011;64233;51.486;6.332;2023-04-01T03:52:12;1.75;;;1.02;;
75639;SDS011;64233;51.486;6.332;2023-04-01T03:54:37;2.67;;;1.23;;
75639;SDS011;64233;51.486;6.332;2023-04-01T03:57:03;1.75;;;1.40;;
75639;SDS011;64233;51.486;6.332;2023-04-01T03:59:28;4.18;;;1.67;;
75639;SDS011;64233;51.486;6.332;2023-04-01T04:01:53;2.95;;;1.35;;
75639;SDS011;64233;51.486;6.332;2023-04-01T04:04:19;2.58;;;1.75;;
75639;SDS011;64233;51.486;6.332;2023-04-01T04:06:44;2.05;;;1.85;;
75639;SDS011;64233;51.486;6.332;2023-04-01T04:09:10;1.17;;;1.00;;
75639;SDS011;64233;51.486;6.332;2023-04-01T04:11:35;1.25;;;1.10;;
75639;SDS011;64233;51.486;6.332;2023-04-01T04:14:00;1.45;;;1.25;;
75639;SDS011;64233;51.486;6.332;2023-04-01T04:16:27;2.00;;;1.58;;
75639;SDS011;64233;51.486;6.332;2023-04-01T04:18:52;2.60;;;1.40;;
75639;SDS011;64233;51.486;6.332;2023-04-01T04:21:17;3.15;;;1.65;;
75639;SDS011;64233;51.486;6.332;2023-04-01T04:23:43;3.70;;;1.25;;
75639;SDS011;64233;51.486;6.332;2023-04-01T04:26:13;1.40;;;0.98;;
75639;SDS011;64233;51.486;6.332;2023-04-01T04:28:39;2.38;;;1.83;;
75639;SDS011;64233;51.486;6.332;2023-04-01T04:31:05;2.92;;;2.47;;
75639;SDS011;64233;51.486;6.332;2023-04-01T04:33:31;2.47;;;1.83;;
75639;SDS011;64233;51.486;6.332;2023-04-01T04:35:57;1.85;;;1.55;;
75639;SDS011;64233;51.486;6.332;2023-04-01T04:38:23;5.00;;;2.92;;
75639;SDS011;64233;51.486;6.332;2023-04-01T04:40:48;5.18;;;2.85;;
75639;SDS011;64233;51.486;6.332;2023-04-01T04:43:15;3.42;;;2.60;;
75639;SDS011;64233;51.486;6.332;2023-04-01T04:45:41;1.88;;;1.58;;
75639;SDS011;64233;51.486;6.332;2023-04-01T04:48:07;2.83;;;2.63;;
75639;SDS011;64233;51.486;6.332;2023-04-01T04:50:34;2.22;;;1.23;;
75639;SDS011;64233;51.486;6.332;2023-04-01T04:52:59;5.00;;;2.78;;
75639;SDS011;64233;51.486;6.332;2023-04-01T04:55:24;3.50;;;2.40;;
75639;SDS011;64233;51.486;6.332;2023-04-01T04:57:50;2.53;;;1.33;;
75639;SDS011;64233;51.486;6.332;2023-04-01T05:00:15;3.05;;;2.35;;
75639;SDS011;64233;51.486;6.332;2023-04-01T05:02:41;3.22;;;2.72;;
75639;SDS011;64233;51.486;6.332;2023-04-01T05:05:06;3.13;;;2.30;;
75639;SDS011;64233;51.486;6.332;2023-04-01T05:07:32;3.13;;;2.20;;
75639;SDS011;64233;51.486;6.332;2023-04-01T05:09:58;1.70;;;1.40;;
75639;SDS011;64233;51.486;6.332;2023-04-01T05:12:23;3.00;;;2.30;;
75639;SDS011;64233;51.486;6.332;2023-04-01T05:14:48;2.33;;;2.10;;
75639;SDS011;64233;51.486;6.332;2023-04-01T05:17:14;4.25;;;2.92;;
75639;SDS011;64233;51.486;6.332;2023-04-01T05:19:39;4.20;;;3.10;;
75639;SDS011;64233;51.486;6.332;2023-04-01T05:22:05;3.65;;;2.78;;
75639;SDS011;64233;51.486;6.332;2023-04-01T05:24:31;4.25;;;2.22;;
75639;SDS011;64233;51.486;6.332;2023-04-01T05:26:56;3.45;;;2.20;;
75639;SDS011;64233;51.486;6.332;2023-04-01T05:29:22;5.10;;;3.65;;
75639;SDS011;64233;51.486;6.332;2023-04-01T05:31:48;3.95;;;3.10;;
75639;SDS011;64233;51.486;6.332;2023-04-01T05:34:13;3.47;;;2.55;;
75639;SDS011;64233;51.486;6.332;2023-04-01T05:36:39;3.75;;;2.60;;
75639;SDS011;64233;51.486;6.332;2023-04-01T05:39:05;1.77;;;1.35;;
75639;SDS011;64233;51.486;6.332;2023-04-01T05:41:30;3.70;;;3.00;;
75639;SDS011;64233;51.486;6.332;2023-04-01T05:43:55;1.60;;;1.40;;
75639;SDS011;64233;51.486;6.332;2023-04-01T05:46:20;1.98;;;1.77;;
75639;SDS011;64233;51.486;6.332;2023-04-01T05:48:46;2.90;;;2.30;;
75639;SDS011;64233;51.486;6.332;2023-04-01T05:51:14;3.15;;;2.58;;
75639;SDS011;64233;51.486;6.332;2023-04-01T05:53:40;3.90;;;2.78;;
75639;SDS011;64233;51.486;6.332;2023-04-01T05:56:06;1.83;;;1.58;;
75639;SDS011;64233;51.486;6.332;2023-04-01T05:58:34;3.20;;;1.95;;
75639;SDS011;64233;51.486;6.332;2023-04-01T06:01:00;5.00;;;2.90;;
75639;SDS011;64233;51.486;6.332;2023-04-01T06:03:30;3.08;;;2.47;;
75639;SDS011;64233;51.486;6.332;2023-04-01T06:05:55;2.60;;;1.88;;
75639;SDS011;64233;51.486;6.332;2023-04-01T06:08:21;2.90;;;2.13;;
75639;SDS011;64233;51.486;6.332;2023-04-01T06:19:20;2.78;;;2.15;;
75639;SDS011;64233;51.486;6.332;2023-04-01T06:22:05;3.50;;;2.17;;
75639;SDS011;64233;51.486;6.332;2023-04-01T06:27:43;3.58;;;2.22;;
75639;SDS011;64233;51.486;6.332;2023-04-01T06:33:12;3.63;;;2.00;;
75639;SDS011;64233;51.486;6.332;2023-04-01T06:41:50;4.00;;;2.50;;
75639;SDS011;64233;51.486;6.332;2023-04-01T06:44:44;2.05;;;1.33;;
75639;SDS011;64233;51.486;6.332;2023-04-01T06:53:06;5.15;;;2.92;;
75639;SDS011;64233;51.486;6.332;2023-04-01T06:55:40;3.78;;;2.78;;
75639;SDS011;64233;51.486;6.332;2023-04-01T06:58:13;5.97;;;2.25;;
75639;SDS011;64233;51.486;6.332;2023-04-01T07:00:46;4.65;;;2.35;;
75639;SDS011;64233;51.486;6.332;2023-04-01T07:06:04;2.65;;;1.65;;
75639;SDS011;64233;51.486;6.332;2023-04-01T07:08:31;1.77;;;1.27;;
75639;SDS011;64233;51.486;6.332;2023-04-01T07:11:02;2.65;;;1.77;;
75639;SDS011;64233;51.486;6.332;2023-04-01T07:16:12;6.80;;;2.55;;
75639;SDS011;64233;51.486;6.332;2023-04-01T07:18:50;2.15;;;1.38;;
75639;SDS011;64233;51.486;6.332;2023-04-01T07:21:29;5.30;;;2.35;;
75639;SDS011;64233;51.486;6.332;2023-04-01T07:24:10;3.33;;;2.30;;
75639;SDS011;64233;51.486;6.332;2023-04-01T07:26:43;4.07;;;2.15;;
75639;SDS011;64233;51.486;6.332;2023-04-01T07:29:12;4.22;;;2.25;;
75639;SDS011;64233;51.486;6.332;2023-04-01T07:31:49;3.28;;;1.17;;
75639;SDS011;64233;51.486;6.332;2023-04-01T07:34:26;4.70;;;2.80;;
75639;SDS011;64233;51.486;6.332;2023-04-01T07:37:06;3.47;;;2.45;;
75639;SDS011;64233;51.486;6.332;2023-04-01T07:39:55;3.13;;;1.58;;
75639;SDS011;64233;51.486;6.332;2023-04-01T07:42:47;3.33;;;1.95;;
75639;SDS011;64233;51.486;6.332;2023-04-01T07:45:35;2.55;;;1.77;;
75639;SDS011;64233;51.486;6.332;2023-04-01T07:48:15;2.05;;;1.75;;
75639;SDS011;64233;51.486;6.332;2023-04-01T07:51:09;3.08;;;1.98;;
75639;SDS011;64233;51.486;6.332;2023-04-01T07:53:46;2.83;;;1.77;;
75639;SDS011;64233;51.486;6.332;2023-04-01T07:56:17;4.32;;;2.10;;
75639;SDS011;64233;51.486;6.332;2023-04-01T07:59:07;2.65;;;1.75;;
75639;SDS011;64233;51.486;6.332;2023-04-01T08:07:23;3.70;;;1.90;;
75639;SDS011;64233;51.486;6.332;2023-04-01T08:09:57;3.67;;;2.10;;
75639;SDS011;64233;51.486;6.332;2023-04-01T08:17:52;3.58;;;2.20;;
75639;SDS011;64233;51.486;6.332;2023-04-01T08:20:36;3.95;;;2.55;;
75639;SDS011;64233;51.486;6.332;2023-04-01T08:25:37;3.45;;;1.88;;
75639;SDS011;64233;51.486;6.332;2023-04-01T08:30:59;5.00;;;2.88;;
75639;SDS011;64233;51.486;6.332;2023-04-01T08:33:30;4.78;;;2.03;;
75639;SDS011;64233;51.486;6.332;2023-04-01T08:36:43;4.78;;;2.92;;
75639;SDS011;64233;51.486;6.332;2023-04-01T08:38:55;8.20;;;4.57;;
75639;SDS011;64233;51.486;6.332;2023-04-01T08:55:04;4.22;;;2.85;;
75639;SDS011;64233;51.486;6.332;2023-04-01T08:58:02;9.40;;;4.80;;
75639;SDS011;64233;51.486;6.332;2023-04-01T09:00:44;4.82;;;3.03;;
75639;SDS011;64233;51.486;6.332;2023-04-01T09:14:53;7.68;;;3.58;;
75639;SDS011;64233;51.486;6.332;2023-04-01T09:34:52;6.25;;;3.85;;
75639;SDS011;64233;51.486;6.332;2023-04-01T09:37:48;6.13;;;4.05;;
75639;SDS011;64233;51.486;6.332;2023-04-01T09:46:09;3.92;;;2.60;;
75639;SDS011;64233;51.486;6.332;2023-04-01T09:51:59;6.55;;;3.17;;
75639;SDS011;64233;51.486;6.332;2023-04-01T09:57:55;8.10;;;4.97;;
75639;SDS011;64233;51.486;6.332;2023-04-01T10:03:48;10.60;;;5.22;;
75639;SDS011;64233;51.486;6.332;2023-04-01T10:06:47;10.40;;;5.40;;
75639;SDS011;64233;51.486;6.332;2023-04-01T10:09:29;11.77;;;5.80;;
75639;SDS011;64233;51.486;6.332;2023-04-01T10:12:38;11.55;;;5.88;;
75639;SDS011;64233;51.486;6.332;2023-04-01T10:15:26;7.35;;;4.75;;
75639;SDS011;64233;51.486;6.332;2023-04-01T10:18:10;6.18;;;4.05;;
75639;SDS011;64233;51.486;6.332;2023-04-01T10:20:59;14.68;;;6.45;;
75639;SDS011;64233;51.486;6.332;2023-04-01T10:23:45;7.82;;;5.28;;
75639;SDS011;64233;51.486;6.332;2023-04-01T10:29:14;13.27;;;6.55;;
75639;SDS011;64233;51.486;6.332;2023-04-01T10:31:57;11.93;;;5.55;;
75639;SDS011;64233;51.486;6.332;2023-04-01T10:38:08;7.90;;;5.57;;
75639;SDS011;64233;51.486;6.332;2023-04-01T10:46:46;9.15;;;5.10;;
75639;SDS011;64233;51.486;6.332;2023-04-01T10:49:46;6.45;;;3.33;;
75639;SDS011;64233;51.486;6.332;2023-04-01T11:04:02;10.68;;;6.15;;
75639;SDS011;64233;51.486;6.332;2023-04-01T11:12:33;9.55;;;5.28;;
75639;SDS011;64233;51.486;6.332;2023-04-01T11:27:21;8.63;;;4.65;;
75639;SDS011;64233;51.486;6.332;2023-04-01T11:33:10;8.57;;;5.03;;
75639;SDS011;64233;51.486;6.332;2023-04-01T11:41:51;5.85;;;4.85;;
75639;SDS011;64233;51.486;6.332;2023-04-01T11:44:25;8.07;;;3.63;;
75639;SDS011;64233;51.486;6.332;2023-04-01T11:49:47;8.52;;;5.25;;
75639;SDS011;64233;51.486;6.332;2023-04-01T11:55:42;9.60;;;5.07;;
75639;SDS011;64233;51.486;6.332;2023-04-01T11:58:19;7.72;;;4.75;;
75639;SDS011;64233;51.486;6.332;2023-04-01T12:17:29;9.30;;;4.78;;
75639;SDS011;64233;51.486;6.332;2023-04-01T12:37:17;8.85;;;5.15;;
75639;SDS011;64233;51.486;6.332;2023-04-01T12:40:16;7.65;;;4.28;;
75639;SDS011;64233;51.486;6.332;2023-04-01T12:43:23;9.38;;;5.30;;
75639;SDS011;64233;51.486;6.332;2023-04-01T12:51:26;5.57;;;3.67;;
75639;SDS011;64233;51.486;6.332;2023-04-01T12:59:14;9.13;;;4.95;;
75639;SDS011;64233;51.486;6.332;2023-04-01T13:01:59;8.02;;;4.32;;
75639;SDS011;64233;51.486;6.332;2023-04-01T13:04:36;8.95;;;5.50;;
75639;SDS011;64233;51.486;6.332;2023-04-01T13:12:50;9.60;;;5.57;;
75639;SDS011;64233;51.486;6.332;2023-04-01T13:15:30;5.93;;;3.08;;
75639;SDS011;64233;51.486;6.332;2023-04-01T13:27:07;5.93;;;4.25;;
75639;SDS011;64233;51.486;6.332;2023-04-01T13:29:57;7.07;;;4.15;;
75639;SDS011;64233;51.486;6.332;2023-04-01T13:51:22;5.00;;;3.50;;
75639;SDS011;64233;51.486;6.332;2023-04-01T13:59:59;7.07;;;3.50;;
75639;SDS011;64233;51.486;6.332;2023-04-01T14:08:29;6.25;;;4.05;;
75639;SDS011;64233;51.486;6.332;2023-04-01T14:13:56;5.47;;;3.55;;
75639;SDS011;64233;51.486;6.332;2023-04-01T14:19:18;5.10;;;4.18;;
75639;SDS011;64233;51.486;6.332;2023-04-01T14:24:36;6.63;;;3.88;;
75639;SDS011;64233;51.486;6.332;2023-04-01T14:27:22;5.78;;;4.32;;
75639;SDS011;64233;51.486;6.332;2023-04-01T14:35:25;7.45;;;4.43;;
75639;SDS011;64233;51.486;6.332;2023-04-01T14:47:04;7.57;;;3.20;;
75639;SDS011;64233;51.486;6.332;2023-04-01T14:49:46;6.45;;;3.83;;
75639;SDS011;64233;51.486;6.332;2023-04-01T14:52:15;3.80;;;2.85;;
75639;SDS011;64233;51.486;6.332;2023-04-01T14:54:48;4.85;;;3.55;;
75639;SDS011;64233;51.486;6.332;2023-04-01T14:57:28;5.45;;;3.70;;
75639;SDS011;64233;51.486;6.332;2023-04-01T15:00:14;8.52;;;4.18;;
75639;SDS011;64233;51.486;6.332;2023-04-01T15:05:45;4.88;;;3.35;;
75639;SDS011;64233;51.486;6.332;2023-04-01T15:08:16;5.20;;;3.60;;
75639;SDS011;64233;51.486;6.332;2023-04-01T15:24:47;5.45;;;3.85;;
75639;SDS011;64233;51.486;6.332;2023-04-01T15:27:35;4.97;;;3.42;;
75639;SDS011;64233;51.486;6.332;2023-04-01T15:38:58;3.35;;;2.17;;
75639;SDS011;64233;51.486;6.332;2023-04-01T15:41:53;3.95;;;3.00;;
75639;SDS011;64233;51.486;6.332;2023-04-01T15:50:11;6.32;;;3.72;;
75639;SDS011;64233;51.486;6.332;2023-04-01T15:55:39;8.07;;;5.20;;
75639;SDS011;64233;51.486;6.332;2023-04-01T16:01:44;7.20;;;4.10;;
75639;SDS011;64233;51.486;6.332;2023-04-01T16:04:35;6.93;;;4.22;;
75639;SDS011;64233;51.486;6.332;2023-04-01T16:09:43;5.90;;;4.43;;
75639;SDS011;64233;51.486;6.332;2023-04-01T16:15:22;6.38;;;4.38;;
75639;SDS011;64233;51.486;6.332;2023-04-01T16:18:05;6.88;;;3.92;;
75639;SDS011;64233;51.486;6.332;2023-04-01T16:21:00;7.30;;;4.30;;
75639;SDS011;64233;51.486;6.332;2023-04-01T16:23:36;8.27;;;4.75;;
75639;SDS011;64233;51.486;6.332;2023-04-01T16:26:16;8.45;;;5.15;;
75639;SDS011;64233;51.486;6.332;2023-04-01T16:31:57;7.15;;;4.75;;
75639;SDS011;64233;51.486;6.332;2023-04-01T16:37:34;8.77;;;5.30;;
75639;SDS011;64233;51.486;6.332;2023-04-01T16:43:04;6.53;;;4.80;;
75639;SDS011;64233;51.486;6.332;2023-04-01T16:45:56;6.57;;;4.75;;
75639;SDS011;64233;51.486;6.332;2023-04-01T16:48:58;6.38;;;4.18;;
75639;SDS011;64233;51.486;6.332;2023-04-01T16:51:52;6.73;;;4.97;;
75639;SDS011;64233;51.486;6.332;2023-04-01T16:54:55;6.45;;;4.20;;
75639;SDS011;64233;51.486;6.332;2023-04-01T16:57:25;5.85;;;4.13;;
75639;SDS011;64233;51.486;6.332;2023-04-01T17:02:25;8.63;;;5.18;;
75639;SDS011;64233;51.486;6.332;2023-04-01T17:07:47;8.52;;;4.90;;
75639;SDS011;64233;51.486;6.332;2023-04-01T17:24:51;7.47;;;5.55;;
75639;SDS011;64233;51.486;6.332;2023-04-01T17:30:31;9.05;;;5.32;;
75639;SDS011;64233;51.486;6.332;2023-04-01T17:33:31;8.20;;;5.65;;
75639;SDS011;64233;51.486;6.332;2023-04-01T17:44:44;8.33;;;5.57;;
75639;SDS011;64233;51.486;6.332;2023-04-01T17:50:20;9.30;;;5.60;;
75639;SDS011;64233;51.486;6.332;2023-04-01T17:52:58;7.47;;;5.30;;
75639;SDS011;64233;51.486;6.332;2023-04-01T17:58:20;8.50;;;5.93;;
75639;SDS011;64233;51.486;6.332;2023-04-01T18:01:02;10.02;;;5.55;;
75639;SDS011;64233;51.486;6.332;2023-04-01T18:03:54;7.57;;;5.32;;
75639;SDS011;64233;51.486;6.332;2023-04-01T18:06:47;6.20;;;4.65;;
75639;SDS011;64233;51.486;6.332;2023-04-01T18:12:28;9.63;;;5.55;;
75639;SDS011;64233;51.486;6.332;2023-04-01T18:15:21;9.45;;;4.90;;
75639;SDS011;64233;51.486;6.332;2023-04-01T18:23:39;6.07;;;4.25;;
75639;SDS011;64233;51.486;6.332;2023-04-01T18:26:12;8.30;;;4.88;;
75639;SDS011;64233;51.486;6.332;2023-04-01T18:28:49;5.43;;;3.38;;
75639;SDS011;64233;51.486;6.332;2023-04-01T18:31:22;5.45;;;3.47;;
75639;SDS011;64233;51.486;6.332;2023-04-01T18:36:44;1.45;;;1.23;;
75639;SDS011;64233;51.486;6.332;2023-04-01T18:39:29;1.15;;;0.60;;
75639;SDS011;64233;51.486;6.332;2023-04-01T18:47:47;1.92;;;1.30;;
75639;SDS011;64233;51.486;6.332;2023-04-01T18:53:09;1.35;;;1.02;;
75639;SDS011;64233;51.486;6.332;2023-04-01T18:58:35;0.85;;;0.85;;
75639;SDS011;64233;51.486;6.332;2023-04-01T19:01:11;3.20;;;2.20;;
75639;SDS011;64233;51.486;6.332;2023-04-01T19:06:27;1.77;;;0.85;;
75639;SDS011;64233;51.486;6.332;2023-04-01T19:09:14;2.42;;;1.38;;
75639;SDS011;64233;51.486;6.332;2023-04-01T19:11:45;4.05;;;1.50;;
75639;SDS011;64233;51.486;6.332;2023-04-01T19:17:07;2.20;;;1.33;;
75639;SDS011;64233;51.486;6.332;2023-04-01T19:22:37;1.98;;;1.77;;
75639;SDS011;64233;51.486;6.332;2023-04-01T19:30:58;2.30;;;1.80;;
75639;SDS011;64233;51.486;6.332;2023-04-01T19:33:49;1.75;;;1.17;;
75639;SDS011;64233;51.486;6.332;2023-04-01T19:36:48;2.10;;;1.77;;
75639;SDS011;64233;51.486;6.332;2023-04-01T19:52:47;2.65;;;1.70;;
75639;SDS011;64233;51.486;6.332;2023-04-01T20:00:54;0.55;;;0.55;;
75639;SDS011;64233;51.486;6.332;2023-04-01T20:06:06;1.55;;;1.42;;
75639;SDS011;64233;51.486;6.332;2023-04-01T20:09:22;2.15;;;1.67;;
75639;SDS011;64233;51.486;6.332;2023-04-01T20:14:48;1.77;;;1.33;;
75639;SDS011;64233;51.486;6.332;2023-04-01T20:20:21;0.75;;;0.75;;
75639;SDS011;64233;51.486;6.332;2023-04-01T20:23:16;1.40;;;1.30;;
75639;SDS011;64233;51.486;6.332;2023-04-01T20:25:52;1.58;;;1.48;;
75639;SDS011;64233;51.486;6.332;2023-04-01T20:28:42;1.25;;;1.15;;
75639;SDS011;64233;51.486;6.332;2023-04-01T20:31:12;1.13;;;1.02;;
75639;SDS011;64233;51.486;6.332;2023-04-01T20:34:06;1.13;;;1.00;;
75639;SDS011;64233;51.486;6.332;2023-04-01T20:53:28;1.45;;;1.10;;
75639;SDS011;64233;51.486;6.332;2023-04-01T20:56:29;1.40;;;1.30;;
75639;SDS011;64233;51.486;6.332;2023-04-01T20:59:29;0.98;;;0.93;;
75639;SDS011;64233;51.486;6.332;2023-04-01T21:08:14;1.90;;;1.70;;
75639;SDS011;64233;51.486;6.332;2023-04-01T21:21:15;1.58;;;1.35;;
75639;SDS011;64233;51.486;6.332;2023-04-01T21:26:35;1.40;;;1.30;;
75639;SDS011;64233;51.486;6.332;2023-04-01T21:29:30;2.42;;;1.45;;
75639;SDS011;64233;51.486;6.332;2023-04-01T21:32:25;1.38;;;1.25;;
75639;SDS011;64233;51.486;6.332;2023-04-01T21:43:01;0.70;;;0.68;;
75639;SDS011;64233;51.486;6.332;2023-04-01T21:46:07;1.58;;;1.20;;
75639;SDS011;64233;51.486;6.332;2023-04-01T21:54:48;2.15;;;1.77;;
75639;SDS011;64233;51.486;6.332;2023-04-01T22:03:14;0.93;;;0.88;;
75639;SDS011;64233;51.486;6.332;2023-04-01T22:06:20;2.55;;;1.77;;
75639;SDS011;64233;51.486;6.332;2023-04-01T22:14:22;2.03;;;1.83;;
75639;SDS011;64233;51.486;6.332;2023-04-01T22:16:57;1.35;;;1.08;;
75639;SDS011;64233;51.486;6.332;2023-04-01T22:19:35;3.05;;;1.92;;
75639;SDS011;64233;51.486;6.332;2023-04-01T22:25:10;5.18;;;2.92;;
75639;SDS011;64233;51.486;6.332;2023-04-01T22:27:52;4.45;;;2.72;;
75639;SDS011;64233;51.486;6.332;2023-04-01T22:30:27;1.77;;;1.25;;
75639;SDS011;64233;51.486;6.332;2023-04-01T22:33:07;2.70;;;2.50;;
75639;SDS011;64233;51.486;6.332;2023-04-01T22:35:43;4.82;;;2.42;;
75639;SDS011;64233;51.486;6.332;2023-04-01T22:40:53;3.45;;;2.67;;
75639;SDS011;64233;51.486;6.332;2023-04-01T22:43:42;3.83;;;2.78;;
75639;SDS011;64233;51.486;6.332;2023-04-01T22:49:04;3.47;;;2.38;;
75639;SDS011;64233;51.486;6.332;2023-04-01T23:02:36;0.98;;;0.88;;
75639;SDS011;64233;51.486;6.332;2023-04-01T23:05:05;1.73;;;1.50;;
75639;SDS011;64233;51.486;6.332;2023-04-01T23:10:26;1.63;;;1.52;;
75639;SDS011;64233;51.486;6.332;2023-04-01T23:12:59;1.33;;;1.23;;
75639;SDS011;64233;51.486;6.332;2023-04-01T23:15:29;4.40;;;2.00;;
75639;SDS011;64233;51.486;6.332;2023-04-01T23:18:03;2.08;;;1.83;;
75639;SDS011;64233;51.486;6.332;2023-04-01T23:23:24;3.88;;;1.98;;
75639;SDS011;64233;51.486;6.332;2023-04-01T23:26:04;1.40;;;1.30;;
75639;SDS011;64233;51.486;6.332;2023-04-01T23:31:24;1.65;;;1.30;;
75639;SDS011;64233;51.486;6.332;2023-04-01T23:34:02;1.77;;;1.65;;
75639;SDS011;64233;51.486;6.332;2023-04-01T23:36:37;2.53;;;2.10;;
75639;SDS011;64233;51.486;6.332;2023-04-01T23:39:10;2.65;;;1.65;;
75639;SDS011;64233;51.486;6.332;2023-04-01T23:41:51;3.38;;;2.53;;
75639;SDS011;64233;51.486;6.332;2023-04-01T23:44:18;2.50;;;1.48;;
75639;SDS011;64233;51.486;6.332;2023-04-01T23:46:45;3.53;;;2.35;;
75639;SDS011;64233;51.486;6.332;2023-04-01T23:49:14;1.80;;;1.10;;
75639;SDS011;64233;51.486;6.332;2023-04-01T23:51:58;1.80;;;1.67;;
75639;SDS011;64233;51.486;6.332;2023-04-01T23:55:03;2.63;;;2.10;;
75639;SDS011;64233;51.486;6.332;2023-04-01T23:57:38;1.70;;;1.45;;
